Time;durP1;ratioP1;P1;durP2;ratioP2;P2;SDS_P1;SDS_P2;PMS_P1;PMS_P2;Temp;Humidity;BMP_temperature;BMP_pressure;BME280_temperature;BME280_humidity;BME280_pressure;Samples;Min_cycle;Max_cycle;Signal;HPM_P1;HPM_P2
2023/08/24 00:02:06;;;;;;;12.65;6.20;;;18.90;51.00;;;;;;5046976;28;20393;-77
2023/08/24 00:04:32;;;;;;;9.88;5.90;;;18.70;52.70;;;;;;5047553;28;20387;-77
2023/08/24 00:06:58;;;;;;;14.83;6.50;;;18.40;54.60;;;;;;5045189;28;20505;-78
2023/08/24 00:09:24;;;;;;;9.37;6.00;;;18.30;55.70;;;;;;5036941;28;20430;-78
2023/08/24 00:11:50;;;;;;;16.90;6.88;;;18.30;56.20;;;;;;5037586;28;20729;-79
2023/08/24 00:14:15;;;;;;;11.23;6.10;;;18.30;57.00;;;;;;5037148;28;20390;-78
2023/08/24 00:16:41;;;;;;;12.83;6.20;;;18.40;55.80;;;;;;5037238;28;20458;-77
2023/08/24 00:19:07;;;;;;;10.80;6.30;;;18.50;55.30;;;;;;5037086;28;20406;-78
2023/08/24 00:21:33;;;;;;;7.72;5.20;;;18.40;55.80;;;;;;5035507;28;20973;-76
2023/08/24 00:23:59;;;;;;;12.60;5.90;;;18.30;56.50;;;;;;5034251;28;20391;-78
2023/08/24 00:26:25;;;;;;;10.02;6.20;;;18.20;57.40;;;;;;5043654;28;20567;-77
2023/08/24 00:28:51;;;;;;;9.10;6.03;;;18.10;58.10;;;;;;5035976;28;20998;-78
2023/08/24 00:31:17;;;;;;;9.63;6.30;;;18.00;58.90;;;;;;5035583;28;20437;-77
2023/08/24 00:33:43;;;;;;;9.70;5.80;;;18.00;59.00;;;;;;5035220;28;20412;-77
2023/08/24 00:36:08;;;;;;;10.73;5.63;;;18.00;60.10;;;;;;5040324;28;20533;-77
2023/08/24 00:38:34;;;;;;;14.70;5.80;;;18.00;60.90;;;;;;5035907;28;20387;-77
2023/08/24 00:41:00;;;;;;;9.30;5.90;;;18.00;61.90;;;;;;5038588;28;20405;-77
2023/08/24 00:43:27;;;;;;;13.23;6.15;;;17.90;62.50;;;;;;5032704;28;20403;-77
2023/08/24 00:45:55;;;;;;;14.27;6.30;;;18.00;62.70;;;;;;5035930;28;20500;-78
2023/08/24 00:48:25;;;;;;;8.45;6.10;;;17.90;62.30;;;;;;5034284;28;20394;-77
2023/08/24 00:50:52;;;;;;;9.70;5.90;;;17.80;62.30;;;;;;5036164;28;20852;-75
2023/08/24 00:53:18;;;;;;;8.15;6.00;;;17.80;62.10;;;;;;5032613;28;20398;-76
2023/08/24 00:55:44;;;;;;;12.38;6.10;;;17.80;62.40;;;;;;5034788;28;20386;-77
2023/08/24 00:58:10;;;;;;;11.27;5.78;;;17.80;62.30;;;;;;5033937;28;20748;-77
2023/08/24 01:00:36;;;;;;;10.00;6.20;;;17.80;62.10;;;;;;5034767;28;20784;-78
2023/08/24 01:03:01;;;;;;;14.52;6.40;;;17.80;62.20;;;;;;5034762;28;20467;-77
2023/08/24 01:05:28;;;;;;;10.77;5.90;;;17.70;63.30;;;;;;5035598;28;20387;-78
2023/08/24 01:07:53;;;;;;;9.63;5.60;;;17.70;64.20;;;;;;5059602;23;20436;-73
2023/08/24 01:10:19;;;;;;;11.00;6.00;;;17.60;64.80;;;;;;5053145;28;20390;-74
2023/08/24 01:13:00;;;;;;;12.45;5.80;;;17.70;63.10;;;;;;5052798;28;20390;-73
2023/08/24 01:15:44;;;;;;;9.10;5.60;;;17.80;61.70;;;;;;5053094;28;20827;-74
2023/08/24 01:18:15;;;;;;;9.53;5.93;;;18.00;60.90;;;;;;5071151;28;20532;-74
2023/08/24 01:20:42;;;;;;;12.82;5.90;;;17.90;60.00;;;;;;5073256;28;20864;-74
2023/08/24 01:23:31;;;;;;;13.43;6.88;;;17.90;60.10;;;;;;5073045;28;20419;-75
2023/08/24 01:26:10;;;;;;;12.93;6.65;;;17.80;60.80;;;;;;5073026;28;20859;-74
2023/08/24 01:28:37;;;;;;;15.63;7.65;;;17.70;62.00;;;;;;5072622;28;20643;-73
2023/08/24 01:31:04;;;;;;;11.70;7.75;;;17.70;62.20;;;;;;5072292;28;20383;-73
2023/08/24 01:33:30;;;;;;;11.50;7.17;;;17.70;62.30;;;;;;5072248;28;20391;-73
2023/08/24 01:35:55;;;;;;;13.90;6.67;;;17.70;62.00;;;;;;5072599;28;20760;-73
2023/08/24 01:38:21;;;;;;;11.15;7.20;;;17.70;62.00;;;;;;5072275;28;20488;-74
2023/08/24 01:41:22;;;;;;;12.55;7.18;;;17.70;61.80;;;;;;5071039;28;20475;-73
2023/08/24 01:43:52;;;;;;;12.23;7.37;;;17.70;61.40;;;;;;5072149;28;20380;-74
2023/08/24 01:46:20;;;;;;;10.75;7.43;;;17.80;60.10;;;;;;5072118;28;20891;-74
2023/08/24 01:48:47;;;;;;;10.52;7.00;;;17.80;60.20;;;;;;5072236;28;20376;-74
2023/08/24 01:51:13;;;;;;;12.00;8.00;;;17.70;61.20;;;;;;5072250;28;20941;-74
2023/08/24 01:53:40;;;;;;;16.55;7.30;;;17.70;61.90;;;;;;5073036;28;20384;-74
2023/08/24 01:56:12;;;;;;;15.18;7.35;;;17.80;61.70;;;;;;5071742;28;20387;-73
2023/08/24 01:58:38;;;;;;;15.23;7.13;;;18.00;59.80;;;;;;5071910;28;20387;-74
2023/08/24 02:01:10;;;;;;;11.65;7.00;;;18.00;59.30;;;;;;5071594;28;20394;-74
2023/08/24 02:03:36;;;;;;;11.90;7.70;;;17.90;59.90;;;;;;5071724;28;20929;-74
2023/08/24 02:06:02;;;;;;;11.93;7.30;;;17.80;61.10;;;;;;5071484;28;20415;-74
2023/08/24 02:08:27;;;;;;;13.90;7.87;;;17.70;61.80;;;;;;5071700;28;20407;-74
2023/08/24 02:10:53;;;;;;;14.70;7.73;;;17.60;61.90;;;;;;5071312;28;20895;-74
2023/08/24 02:13:18;;;;;;;14.63;6.85;;;17.60;62.30;;;;;;5071435;28;20384;-74
2023/08/24 02:15:44;;;;;;;11.80;6.73;;;17.60;62.40;;;;;;5071245;28;20447;-74
2023/08/24 02:18:10;;;;;;;14.37;7.03;;;17.60;61.60;;;;;;5071362;28;20380;-74
2023/08/24 02:20:37;;;;;;;12.35;6.85;;;17.60;59.60;;;;;;5070815;28;20384;-74
2023/08/24 02:23:03;;;;;;;14.43;6.85;;;17.60;59.70;;;;;;5071247;28;20387;-74
2023/08/24 02:25:31;;;;;;;11.98;7.22;;;17.60;59.70;;;;;;5070945;28;21723;-74
2023/08/24 02:27:56;;;;;;;11.63;7.07;;;17.60;59.30;;;;;;5071188;28;20438;-75
2023/08/24 02:30:22;;;;;;;10.82;7.05;;;17.60;59.30;;;;;;5070997;28;20868;-73
2023/08/24 02:32:47;;;;;;;10.77;6.95;;;17.70;58.20;;;;;;5070635;28;20387;-74
2023/08/24 02:35:13;;;;;;;13.70;7.40;;;17.70;57.60;;;;;;5070629;28;20467;-74
2023/08/24 02:37:39;;;;;;;9.57;6.43;;;17.70;57.20;;;;;;5069271;28;20947;-74
2023/08/24 02:40:05;;;;;;;13.18;6.80;;;17.80;56.60;;;;;;5070868;28;20787;-74
2023/08/24 02:42:32;;;;;;;12.13;6.32;;;17.80;56.40;;;;;;5070445;28;20390;-73
2023/08/24 02:44:58;;;;;;;12.30;6.60;;;17.80;56.30;;;;;;5070778;28;20411;-74
2023/08/24 02:47:23;;;;;;;11.27;6.53;;;17.90;55.20;;;;;;5070546;28;20435;-75
2023/08/24 02:49:49;;;;;;;11.27;6.82;;;18.10;53.50;;;;;;5070607;28;20380;-74
2023/08/24 02:52:14;;;;;;;15.15;7.05;;;18.20;51.70;;;;;;5069175;28;20388;-74
2023/08/24 02:54:40;;;;;;;17.03;6.80;;;18.30;51.50;;;;;;5070662;28;20384;-74
2023/08/24 02:57:05;;;;;;;11.48;7.30;;;18.40;51.10;;;;;;5070615;28;20372;-74
2023/08/24 02:59:31;;;;;;;17.80;6.85;;;18.30;50.50;;;;;;5071106;28;20395;-74
2023/08/24 03:01:58;;;;;;;12.98;6.47;;;18.40;49.90;;;;;;5070672;28;20375;-74
2023/08/24 03:04:23;;;;;;;12.13;7.00;;;18.40;50.20;;;;;;5070614;28;20433;-74
2023/08/24 03:06:49;;;;;;;12.52;6.60;;;18.50;49.60;;;;;;5070390;28;20404;-73
2023/08/24 03:09:14;;;;;;;12.50;7.40;;;18.50;49.30;;;;;;5069483;28;20379;-73
2023/08/24 03:11:40;;;;;;;9.82;6.45;;;18.50;49.10;;;;;;5071983;28;20891;-75
2023/08/24 03:14:06;;;;;;;12.73;6.80;;;18.50;50.30;;;;;;5070512;28;20387;-72
2023/08/24 03:16:31;;;;;;;12.75;7.28;;;18.40;51.00;;;;;;5070377;28;20892;-73
2023/08/24 03:18:58;;;;;;;15.88;7.25;;;18.40;51.90;;;;;;5070256;28;20394;-74
2023/08/24 03:21:23;;;;;;;10.88;6.80;;;18.50;51.60;;;;;;5070682;28;20724;-73
2023/08/24 03:23:49;;;;;;;14.93;7.70;;;18.50;52.00;;;;;;5070443;28;20405;-73
2023/08/24 03:26:16;;;;;;;12.10;6.23;;;18.40;51.70;;;;;;5069881;28;20926;-73
2023/08/24 03:28:42;;;;;;;10.02;6.53;;;18.60;51.30;;;;;;5069947;28;20387;-73
2023/08/24 03:31:08;;;;;;;15.52;7.32;;;18.80;49.30;;;;;;5070195;28;20375;-73
2023/08/24 03:33:34;;;;;;;8.68;6.50;;;18.90;48.60;;;;;;5074068;28;20379;-73
2023/08/24 03:36:00;;;;;;;12.47;6.40;;;19.10;47.00;;;;;;5073898;28;20483;-73
2023/08/24 03:38:26;;;;;;;11.23;6.22;;;19.00;47.30;;;;;;5073994;28;20379;-74
2023/08/24 03:40:52;;;;;;;13.18;6.60;;;19.10;47.10;;;;;;5073707;28;20379;-73
2023/08/24 03:43:17;;;;;;;13.40;6.30;;;19.10;46.90;;;;;;5074020;28;20387;-73
2023/08/24 03:45:44;;;;;;;12.57;6.75;;;19.10;46.70;;;;;;5073905;28;20386;-74
2023/08/24 03:48:09;;;;;;;11.07;6.40;;;19.10;47.30;;;;;;5073791;28;20387;-73
2023/08/24 03:50:35;;;;;;;10.93;6.63;;;19.20;46.60;;;;;;5074109;28;20388;-73
2023/08/24 03:53:00;;;;;;;13.30;6.70;;;19.20;46.70;;;;;;5072273;28;20812;-74
2023/08/24 03:55:26;;;;;;;13.50;6.50;;;19.20;47.10;;;;;;5073902;28;20880;-74
2023/08/24 03:57:51;;;;;;;13.85;6.65;;;19.10;46.60;;;;;;5073635;28;20449;-74
2023/08/24 04:00:17;;;;;;;16.53;6.90;;;19.20;45.60;;;;;;5073668;28;20394;-74
2023/08/24 04:02:43;;;;;;;8.63;6.40;;;19.20;46.90;;;;;;5073324;28;20421;-74
2023/08/24 04:05:09;;;;;;;12.65;6.90;;;19.20;48.20;;;;;;5074084;28;20390;-75
2023/08/24 04:07:39;;;;;;;10.88;5.90;;;19.20;50.20;;;;;;5073413;28;20407;-74
2023/08/24 04:10:05;;;;;;;13.63;6.72;;;19.10;51.20;;;;;;5073543;28;20380;-74
2023/08/24 04:12:32;;;;;;;14.15;6.97;;;19.10;52.40;;;;;;5073316;28;20405;-73
2023/08/24 04:14:57;;;;;;;14.60;6.90;;;19.10;51.80;;;;;;5073499;28;20384;-74
2023/08/24 04:17:23;;;;;;;11.43;7.03;;;19.10;53.00;;;;;;5073205;28;20522;-74
2023/08/24 04:19:49;;;;;;;17.08;7.57;;;19.00;53.00;;;;;;5071909;28;20471;-73
2023/08/24 04:22:15;;;;;;;12.80;7.47;;;19.00;54.00;;;;;;5072935;28;20459;-72
2023/08/24 04:24:41;;;;;;;16.17;7.22;;;19.00;53.60;;;;;;5073034;28;20383;-73
2023/08/24 04:27:06;;;;;;;14.07;7.70;;;19.00;54.30;;;;;;5072778;28;20402;-73
2023/08/24 04:29:32;;;;;;;13.27;6.90;;;19.10;54.00;;;;;;5073477;28;20502;-73
2023/08/24 04:31:57;;;;;;;15.57;7.50;;;19.00;55.80;;;;;;5073237;28;20395;-73
2023/08/24 04:34:23;;;;;;;13.83;8.17;;;19.00;56.70;;;;;;5073059;28;20406;-73
2023/08/24 04:36:48;;;;;;;13.15;7.10;;;19.10;58.00;;;;;;5072724;28;20387;-73
2023/08/24 04:39:14;;;;;;;12.70;7.80;;;19.00;58.50;;;;;;5073351;28;20384;-74
2023/08/24 04:41:40;;;;;;;13.20;7.10;;;18.90;59.90;;;;;;5072838;28;20429;-74
2023/08/24 04:44:07;;;;;;;12.77;7.70;;;18.90;63.30;;;;;;5071894;28;20396;-74
2023/08/24 04:46:33;;;;;;;17.48;8.20;;;18.80;63.20;;;;;;5072596;28;20415;-74
2023/08/24 04:48:59;;;;;;;12.80;7.60;;;18.80;63.80;;;;;;5073121;28;20438;-75
2023/08/24 04:51:25;;;;;;;14.13;8.40;;;18.80;65.90;;;;;;5072663;28;20757;-74
2023/08/24 04:53:50;;;;;;;13.32;7.57;;;18.80;66.00;;;;;;5072552;28;20416;-73
2023/08/24 04:56:18;;;;;;;11.10;8.30;;;18.70;65.60;;;;;;5072435;28;20380;-73
2023/08/24 04:58:56;;;;;;;14.77;7.85;;;18.70;65.20;;;;;;5072477;28;20818;-73
2023/08/24 05:01:23;;;;;;;12.32;8.30;;;18.70;65.00;;;;;;5072423;28;20379;-73
2023/08/24 05:03:48;;;;;;;11.10;7.68;;;18.80;64.10;;;;;;5072417;28;20391;-72
2023/08/24 05:06:14;;;;;;;10.35;7.45;;;18.90;62.40;;;;;;5072449;28;20426;-73
2023/08/24 05:08:39;;;;;;;12.30;7.57;;;18.90;61.20;;;;;;5072428;28;20724;-73
2023/08/24 05:11:17;;;;;;;13.13;7.43;;;19.00;60.10;;;;;;5073103;28;20844;-74
2023/08/24 05:13:43;;;;;;;13.15;7.25;;;19.00;58.90;;;;;;5072963;28;20376;-72
2023/08/24 05:16:12;;;;;;;14.13;7.93;;;19.00;58.30;;;;;;5072308;28;20386;-72
2023/08/24 05:18:38;;;;;;;15.35;8.25;;;19.00;58.90;;;;;;5072110;28;20421;-73
2023/08/24 05:21:04;;;;;;;12.70;7.30;;;18.90;60.90;;;;;;5072221;28;20668;-72
2023/08/24 05:23:31;;;;;;;12.43;7.88;;;19.00;60.30;;;;;;5072110;28;20380;-72
2023/08/24 05:25:57;;;;;;;13.45;8.57;;;18.90;61.60;;;;;;5072115;28;20428;-72
2023/08/24 05:28:27;;;;;;;12.52;7.85;;;18.90;61.80;;;;;;5072621;28;20904;-73
2023/08/24 05:30:53;;;;;;;13.97;8.50;;;18.90;61.60;;;;;;5071568;28;20449;-72
2023/08/24 05:33:20;;;;;;;18.20;7.60;;;18.90;62.60;;;;;;5072153;28;20387;-71
2023/08/24 05:35:46;;;;;;;17.00;8.30;;;19.00;61.00;;;;;;5071928;28;20430;-72
2023/08/24 05:38:13;;;;;;;11.35;7.85;;;18.90;62.90;;;;;;5071542;28;20388;-72
2023/08/24 05:40:39;;;;;;;15.30;7.80;;;18.90;62.60;;;;;;5071589;28;20944;-72
2023/08/24 05:43:04;;;;;;;15.90;8.50;;;19.00;61.30;;;;;;5071254;28;20467;-72
2023/08/24 05:45:30;;;;;;;12.57;7.83;;;19.10;60.50;;;;;;5071406;28;20379;-72
2023/08/24 05:47:55;;;;;;;15.88;8.30;;;19.20;60.70;;;;;;5071315;28;20414;-72
2023/08/24 05:50:21;;;;;;;14.80;8.00;;;19.20;59.70;;;;;;5071077;28;20490;-73
2023/08/24 05:52:47;;;;;;;16.43;8.43;;;19.10;61.20;;;;;;5070984;28;21020;-72
2023/08/24 05:55:12;;;;;;;14.25;8.30;;;19.10;62.50;;;;;;5071337;28;20422;-72
2023/08/24 05:57:38;;;;;;;13.67;8.40;;;19.10;62.70;;;;;;5071216;28;20396;-72
2023/08/24 06:00:09;;;;;;;15.02;7.60;;;19.10;62.90;;;;;;5071998;28;20839;-72
2023/08/24 06:02:35;;;;;;;16.53;8.20;;;19.10;62.30;;;;;;5072362;28;20426;-73
2023/08/24 06:05:01;;;;;;;14.13;8.17;;;19.20;62.50;;;;;;5071395;28;20400;-72
2023/08/24 06:07:26;;;;;;;14.60;8.73;;;19.20;61.70;;;;;;5070128;28;20403;-72
2023/08/24 06:09:52;;;;;;;16.93;8.40;;;19.30;61.90;;;;;;5070880;28;20472;-72
2023/08/24 06:12:18;;;;;;;18.02;8.70;;;19.40;60.20;;;;;;5070941;28;20380;-72
2023/08/24 06:14:43;;;;;;;13.70;8.02;;;19.50;60.70;;;;;;5070458;28;20417;-73
2023/08/24 06:17:09;;;;;;;14.13;8.40;;;19.50;59.40;;;;;;5071064;28;20718;-72
2023/08/24 06:19:34;;;;;;;15.10;8.65;;;19.50;59.50;;;;;;5071736;28;20395;-72
2023/08/24 06:22:00;;;;;;;20.13;8.70;;;19.50;59.30;;;;;;5070204;28;20399;-74
2023/08/24 06:24:25;;;;;;;15.93;8.48;;;19.50;59.60;;;;;;5070788;28;20440;-74
2023/08/24 06:26:51;;;;;;;12.30;8.00;;;19.50;60.20;;;;;;5070702;28;20498;-72
2023/08/24 06:29:16;;;;;;;14.43;8.30;;;19.50;59.40;;;;;;5070555;28;20384;-72
2023/08/24 06:31:42;;;;;;;13.45;8.63;;;19.50;59.80;;;;;;5070095;28;20940;-73
2023/08/24 06:34:08;;;;;;;15.83;8.57;;;19.50;59.30;;;;;;5070174;28;20383;-72
2023/08/24 06:36:34;;;;;;;12.43;8.60;;;19.60;59.20;;;;;;5066021;28;20888;-71
2023/08/24 06:38:59;;;;;;;16.73;10.30;;;19.60;58.50;;;;;;5067809;28;20399;-71
2023/08/24 06:41:25;;;;;;;21.10;10.98;;;19.70;59.70;;;;;;5068246;28;20748;-74
2023/08/24 06:43:53;;;;;;;16.45;9.43;;;19.70;58.90;;;;;;5067430;28;20806;-71
2023/08/24 06:46:19;;;;;;;12.15;7.72;;;19.90;57.00;;;;;;5068224;28;20494;-74
2023/08/24 06:48:45;;;;;;;17.80;9.10;;;20.00;56.90;;;;;;5065782;28;20392;-75
2023/08/24 06:51:11;;;;;;;16.73;9.25;;;20.10;57.50;;;;;;5068310;28;20615;-75
2023/08/24 06:53:37;;;;;;;14.35;8.20;;;20.20;56.30;;;;;;5068709;28;20437;-74
2023/08/24 06:56:03;;;;;;;15.98;8.95;;;20.40;54.60;;;;;;5068204;28;20380;-74
2023/08/24 06:58:29;;;;;;;13.07;8.70;;;20.50;54.40;;;;;;5065943;28;20427;-74
2023/08/24 07:00:55;;;;;;;10.68;7.70;;;20.60;54.30;;;;;;5068172;28;20416;-73
2023/08/24 07:03:21;;;;;;;17.00;7.80;;;20.70;53.90;;;;;;5068071;28;20387;-74
2023/08/24 07:05:46;;;;;;;15.63;7.55;;;20.80;52.40;;;;;;5067217;28;20388;-74
2023/08/24 07:08:13;;;;;;;15.93;7.40;;;20.90;52.10;;;;;;5051810;23;20763;-72
2023/08/24 07:10:39;;;;;;;10.93;7.27;;;21.00;50.00;;;;;;5045820;28;20528;-73
2023/08/24 07:13:07;;;;;;;15.50;7.80;;;21.10;49.10;;;;;;5033667;28;20891;-73
2023/08/24 07:15:34;;;;;;;18.45;7.30;;;21.20;48.20;;;;;;5032133;28;20493;-75
2023/08/24 07:18:01;;;;;;;11.17;6.70;;;21.30;48.00;;;;;;5034085;28;20375;-76
2023/08/24 07:20:27;;;;;;;15.20;7.40;;;21.40;46.90;;;;;;5031892;28;20923;-75
2023/08/24 07:22:53;;;;;;;9.52;6.70;;;21.50;47.00;;;;;;5018107;28;20479;-74
2023/08/24 07:25:21;;;;;;;14.23;6.50;;;21.60;44.80;;;;;;5028793;28;20383;-74
2023/08/24 07:27:47;;;;;;;11.68;6.18;;;21.70;45.40;;;;;;5027994;28;20486;-75
2023/08/24 07:30:13;;;;;;;9.38;6.00;;;21.90;44.40;;;;;;5028313;28;20490;-74
2023/08/24 07:32:38;;;;;;;16.48;6.45;;;22.10;43.30;;;;;;5029238;28;20383;-75
2023/08/24 07:35:06;;;;;;;13.82;6.20;;;22.20;42.50;;;;;;5028610;28;20395;-74
2023/08/24 07:37:32;;;;;;;16.25;6.78;;;22.30;42.20;;;;;;5027832;28;20457;-73
2023/08/24 07:39:57;;;;;;;12.07;5.55;;;22.50;41.30;;;;;;5020203;28;20834;-72
2023/08/24 07:42:23;;;;;;;10.83;6.00;;;22.50;41.60;;;;;;5009332;28;20381;-72
2023/08/24 07:44:49;;;;;;;16.00;7.83;;;22.70;41.50;;;;;;5025224;28;20716;-70
2023/08/24 07:47:15;;;;;;;11.27;5.90;;;22.90;40.20;;;;;;5029890;28;20479;-72
2023/08/24 07:49:44;;;;;;;11.60;5.27;;;23.10;38.80;;;;;;5029916;28;20387;-71
2023/08/24 07:52:13;;;;;;;8.65;5.15;;;23.10;37.40;;;;;;5030077;28;20466;-72
2023/08/24 07:54:39;;;;;;;11.25;4.95;;;23.30;37.40;;;;;;5030663;28;20937;-73
2023/08/24 07:57:07;;;;;;;10.05;5.25;;;23.40;36.70;;;;;;5030164;28;20399;-73
2023/08/24 07:59:33;;;;;;;8.10;4.93;;;23.40;36.10;;;;;;5029940;28;20505;-73
2023/08/24 08:01:58;;;;;;;8.88;4.90;;;23.50;37.10;;;;;;5029451;28;20859;-73
2023/08/24 08:04:24;;;;;;;8.77;4.80;;;23.50;36.20;;;;;;5029982;28;20426;-71
2023/08/24 08:06:49;;;;;;;9.32;4.70;;;23.60;35.80;;;;;;5028163;28;20403;-72
2023/08/24 08:09:16;;;;;;;11.57;4.77;;;23.70;35.10;;;;;;5030054;28;20394;-73
2023/08/24 08:11:42;;;;;;;7.22;4.55;;;23.80;34.10;;;;;;5030345;28;20789;-71
2023/08/24 08:14:09;;;;;;;7.40;4.07;;;24.00;33.60;;;;;;5030247;28;20426;-70
2023/08/24 08:16:36;;;;;;;5.60;3.87;;;24.30;32.50;;;;;;5031151;28;20422;-73
2023/08/24 08:19:02;;;;;;;10.25;4.55;;;24.50;30.60;;;;;;5036516;28;20466;-74
2023/08/24 08:21:27;;;;;;;9.32;4.30;;;24.60;30.00;;;;;;5037040;28;20765;-74
2023/08/24 08:23:53;;;;;;;7.32;4.90;;;24.80;29.80;;;;;;5034424;28;20414;-73
2023/08/24 08:26:19;;;;;;;7.23;3.97;;;25.00;29.60;;;;;;5034641;28;20410;-74
2023/08/24 08:28:44;;;;;;;11.68;4.32;;;25.20;29.20;;;;;;5033956;28;20441;-73
2023/08/24 08:31:10;;;;;;;7.10;4.50;;;25.40;28.40;;;;;;5034212;28;20390;-72
2023/08/24 08:33:35;;;;;;;9.63;4.50;;;25.40;27.00;;;;;;5034389;28;20781;-74
2023/08/24 08:36:01;;;;;;;5.87;3.50;;;25.60;26.70;;;;;;5033768;28;20954;-73
2023/08/24 08:38:28;;;;;;;8.93;3.95;;;25.80;26.00;;;;;;5033629;28;20421;-72
2023/08/24 08:40:58;;;;;;;6.10;3.70;;;25.80;25.10;;;;;;5033214;28;20866;-73
2023/08/24 08:43:24;;;;;;;7.10;3.80;;;25.90;25.30;;;;;;5033573;28;20387;-73
2023/08/24 08:45:51;;;;;;;7.10;4.05;;;26.00;24.70;;;;;;5033022;28;20395;-74
2023/08/24 08:48:18;;;;;;;7.45;4.30;;;26.10;24.90;;;;;;5032686;28;20747;-75
2023/08/24 08:50:44;;;;;;;4.88;3.58;;;26.10;25.10;;;;;;5032595;28;20386;-72
2023/08/24 08:53:09;;;;;;;8.47;3.90;;;26.20;24.80;;;;;;5032860;28;20395;-75
2023/08/24 08:55:35;;;;;;;8.15;3.90;;;26.30;24.50;;;;;;5033323;28;20461;-72
2023/08/24 08:58:03;;;;;;;6.35;4.00;;;26.20;24.40;;;;;;5032660;28;20423;-73
2023/08/24 09:00:31;;;;;;;9.27;3.90;;;26.20;24.60;;;;;;5032819;28;20454;-73
2023/08/24 09:02:58;;;;;;;6.75;4.10;;;26.40;24.20;;;;;;5032654;28;20387;-72
2023/08/24 09:05:26;;;;;;;8.10;3.63;;;26.40;23.90;;;;;;5033036;28;20407;-72
2023/08/24 09:07:53;;;;;;;6.93;3.90;;;26.40;23.40;;;;;;5032280;28;20407;-73
2023/08/24 09:10:18;;;;;;;5.90;4.15;;;26.50;22.80;;;;;;5032474;28;20375;-73
2023/08/24 09:12:44;;;;;;;6.73;4.03;;;26.50;22.40;;;;;;5032816;28;20525;-74
2023/08/24 09:15:10;;;;;;;5.90;4.30;;;26.50;22.90;;;;;;5033110;28;20433;-73
2023/08/24 09:17:36;;;;;;;7.10;3.97;;;26.60;23.10;;;;;;5033274;28;20806;-73
2023/08/24 09:20:07;;;;;;;6.10;3.80;;;26.80;22.40;;;;;;5032956;28;20480;-73
2023/08/24 09:22:37;;;;;;;6.38;3.70;;;26.80;22.20;;;;;;5033346;28;20391;-74
2023/08/24 09:25:04;;;;;;;4.97;3.70;;;26.80;21.60;;;;;;5033622;28;20395;-74
2023/08/24 09:27:34;;;;;;;5.70;3.70;;;27.00;22.20;;;;;;5033129;28;20899;-72
2023/08/24 09:29:59;;;;;;;6.55;4.07;;;27.20;22.40;;;;;;5033078;28;20852;-74
2023/08/24 09:32:28;;;;;;;7.10;4.30;;;27.30;21.50;;;;;;5033176;28;20386;-72
2023/08/24 09:34:54;;;;;;;7.22;4.10;;;27.50;21.30;;;;;;5033176;28;20393;-72
2023/08/24 09:37:20;;;;;;;8.10;4.40;;;27.60;20.50;;;;;;5032309;28;20495;-73
2023/08/24 09:39:46;;;;;;;8.80;4.50;;;27.80;19.80;;;;;;5032327;28;20470;-72
2023/08/24 09:42:13;;;;;;;8.60;3.75;;;27.80;20.20;;;;;;5032034;28;20473;-72
2023/08/24 09:44:48;;;;;;;7.35;4.15;;;28.00;19.40;;;;;;5032035;28;20391;-73
2023/08/24 09:47:13;;;;;;;6.88;4.00;;;28.00;19.30;;;;;;5031487;28;20457;-74
2023/08/24 09:49:39;;;;;;;5.13;3.50;;;28.10;19.00;;;;;;5032113;28;20383;-72
2023/08/24 09:52:08;;;;;;;6.70;3.97;;;28.20;19.30;;;;;;5031923;28;20418;-72
2023/08/24 09:54:38;;;;;;;7.22;4.35;;;28.30;19.50;;;;;;5031749;28;20411;-74
2023/08/24 09:57:09;;;;;;;6.35;3.70;;;28.40;19.00;;;;;;5032713;28;20457;-73
2023/08/24 09:59:36;;;;;;;6.10;4.10;;;28.60;18.40;;;;;;5033139;28;20391;-74
2023/08/24 10:02:03;;;;;;;12.60;4.20;;;28.60;18.60;;;;;;5032848;28;20391;-73
2023/08/24 10:04:35;;;;;;;7.88;4.50;;;28.60;17.50;;;;;;5033222;28;20427;-74
2023/08/24 10:07:07;;;;;;;9.60;3.90;;;28.80;17.50;;;;;;5032831;28;20406;-72
2023/08/24 10:09:43;;;;;;;5.10;3.90;;;28.80;17.60;;;;;;5033198;28;20384;-72
2023/08/24 10:12:10;;;;;;;6.50;3.97;;;28.70;17.80;;;;;;5032416;28;20390;-73
2023/08/24 10:14:53;;;;;;;7.63;3.60;;;28.90;17.80;;;;;;5032780;28;20406;-74
2023/08/24 10:17:19;;;;;;;5.13;3.70;;;29.00;17.20;;;;;;5032273;28;20863;-73
2023/08/24 10:19:46;;;;;;;6.78;4.00;;;29.10;17.30;;;;;;5031400;28;20453;-72
2023/08/24 10:22:12;;;;;;;7.95;4.18;;;29.20;17.10;;;;;;5031064;28;20425;-73
2023/08/24 10:24:38;;;;;;;4.50;3.55;;;29.20;16.80;;;;;;5031726;28;20880;-75
2023/08/24 10:27:05;;;;;;;7.35;4.00;;;29.40;16.60;;;;;;5030588;28;20499;-73
2023/08/24 10:29:30;;;;;;;5.13;3.63;;;29.40;16.50;;;;;;5029673;28;20402;-73
2023/08/24 10:31:57;;;;;;;5.07;3.67;;;29.40;16.70;;;;;;5031117;28;20383;-74
2023/08/24 10:34:23;;;;;;;9.07;5.22;;;29.50;17.40;;;;;;5031556;28;20744;-73
2023/08/24 10:36:49;;;;;;;4.95;3.20;;;29.90;16.20;;;;;;5031173;28;20426;-74
2023/08/24 10:39:15;;;;;;;4.40;3.27;;;30.00;16.30;;;;;;5031283;28;20419;-72
2023/08/24 10:41:51;;;;;;;8.18;3.80;;;30.10;16.00;;;;;;5030793;28;20478;-74
2023/08/24 10:44:24;;;;;;;5.05;3.33;;;29.80;16.10;;;;;;5031375;28;20478;-73
2023/08/24 10:47:13;;;;;;;6.40;3.83;;;29.90;16.30;;;;;;5029800;28;20482;-74
2023/08/24 10:49:39;;;;;;;10.63;4.10;;;30.10;16.70;;;;;;5031137;28;20819;-72
2023/08/24 10:52:24;;;;;;;5.80;3.23;;;30.30;15.90;;;;;;5031379;28;20387;-73
2023/08/24 10:54:52;;;;;;;5.47;3.60;;;30.40;15.80;;;;;;5029357;28;20383;-73
2023/08/24 10:57:23;;;;;;;4.72;3.10;;;30.60;15.50;;;;;;5030755;28;20386;-73
2023/08/24 11:00:09;;;;;;;9.27;4.50;;;30.60;14.90;;;;;;5031016;28;20397;-74
2023/08/24 11:02:48;;;;;;;8.35;3.70;;;30.50;14.90;;;;;;5031134;28;20928;-73
2023/08/24 11:05:17;;;;;;;7.43;3.90;;;30.80;15.40;;;;;;5030746;28;20391;-73
2023/08/24 11:07:57;;;;;;;7.40;4.60;;;30.90;14.90;;;;;;5030869;28;20775;-73
2023/08/24 11:10:25;;;;;;;4.88;3.75;;;31.10;15.00;;;;;;5034642;28;20389;-72
2023/08/24 11:13:19;;;;;;;5.50;3.60;;;31.10;14.70;;;;;;5034672;28;20382;-75
2023/08/24 11:15:46;;;;;;;4.53;3.63;;;31.00;14.80;;;;;;5030510;28;20925;-72
2023/08/24 11:18:12;;;;;;;5.93;3.50;;;31.00;14.30;;;;;;5031640;28;20399;-74
2023/08/24 11:20:38;;;;;;;7.73;3.40;;;30.80;13.60;;;;;;5030715;28;20859;-72
2023/08/24 11:23:04;;;;;;;6.13;3.58;;;30.40;14.20;;;;;;5030522;28;20748;-72
2023/08/24 11:25:35;;;;;;;6.63;3.70;;;30.40;14.60;;;;;;5030688;28;20387;-73
2023/08/24 11:28:01;;;;;;;8.45;3.35;;;30.50;14.80;;;;;;5030467;28;20417;-72
2023/08/24 11:30:26;;;;;;;6.18;3.78;;;30.30;14.90;;;;;;5030703;28;20383;-73
2023/08/24 11:32:55;;;;;;;8.70;3.57;;;30.20;15.20;;;;;;5030536;28;20384;-74
2023/08/24 11:35:23;;;;;;;4.95;3.60;;;30.30;15.30;;;;;;5030957;28;20378;-73
2023/08/24 11:37:55;;;;;;;7.38;3.67;;;30.30;15.30;;;;;;5030705;28;20402;-73
2023/08/24 11:40:26;;;;;;;9.37;4.20;;;30.20;15.50;;;;;;5029127;28;20398;-71
2023/08/24 11:42:58;;;;;;;8.18;3.92;;;30.10;16.00;;;;;;5030267;28;20435;-73
2023/08/24 11:45:29;;;;;;;7.32;3.80;;;30.20;16.00;;;;;;5031616;28;20395;-74
2023/08/24 11:47:55;;;;;;;6.53;3.90;;;30.50;15.20;;;;;;5030508;28;20498;-72
2023/08/24 11:50:20;;;;;;;7.70;4.00;;;30.50;14.90;;;;;;5030379;28;20431;-73
2023/08/24 11:52:46;;;;;;;6.43;3.70;;;30.50;14.90;;;;;;5031334;28;20390;-73
2023/08/24 11:55:11;;;;;;;6.87;4.20;;;30.60;14.70;;;;;;5033703;28;20391;-73
2023/08/24 11:57:37;;;;;;;6.43;4.00;;;30.60;15.10;;;;;;5034264;28;20401;-73
2023/08/24 12:00:05;;;;;;;9.10;4.10;;;30.70;15.10;;;;;;5034253;28;20911;-72
2023/08/24 12:02:32;;;;;;;7.75;3.80;;;30.80;14.60;;;;;;5034007;28;20410;-73
2023/08/24 12:04:58;;;;;;;8.93;3.70;;;30.70;14.80;;;;;;5033864;28;20418;-73
2023/08/24 12:07:25;;;;;;;8.57;4.00;;;30.60;14.90;;;;;;5033473;28;20438;-74
2023/08/24 12:09:55;;;;;;;8.27;3.97;;;30.50;15.70;;;;;;5032490;28;20390;-72
2023/08/24 12:12:21;;;;;;;8.90;4.03;;;30.50;15.00;;;;;;5032324;28;20418;-74
2023/08/24 12:14:47;;;;;;;7.75;3.95;;;30.40;15.90;;;;;;5033685;28;20458;-73
2023/08/24 12:17:14;;;;;;;5.50;3.40;;;30.10;16.70;;;;;;5033703;28;20402;-72
2023/08/24 12:19:44;;;;;;;8.65;4.30;;;29.90;16.20;;;;;;5033476;28;20490;-73
2023/08/24 12:22:16;;;;;;;9.30;3.97;;;29.70;16.90;;;;;;5033179;28;20452;-72
2023/08/24 12:24:47;;;;;;;7.38;3.60;;;29.50;17.30;;;;;;5033310;28;20393;-72
2023/08/24 12:27:24;;;;;;;10.10;4.22;;;29.20;19.10;;;;;;5033055;28;20444;-74
2023/08/24 12:29:50;;;;;;;10.37;4.30;;;28.90;19.50;;;;;;5033427;28;20390;-73
2023/08/24 12:32:19;;;;;;;7.63;4.05;;;28.60;21.20;;;;;;5033816;28;20474;-73
2023/08/24 12:34:45;;;;;;;9.60;4.40;;;28.60;21.40;;;;;;5034197;28;20752;-74
2023/08/24 12:37:11;;;;;;;11.27;4.60;;;28.30;23.00;;;;;;5034733;28;20383;-73
2023/08/24 12:39:38;;;;;;;10.02;5.40;;;28.00;25.40;;;;;;5033266;28;20402;-74
2023/08/24 12:42:04;;;;;;;10.18;4.78;;;28.10;25.20;;;;;;5033333;28;20366;-74